createdAt,value
2022-08-16T00:00:23.037Z,571.4
2022-08-16T00:01:41.737Z,571.3
2022-08-16T00:02:47.431Z,571.4
2022-08-16T00:03:50.313Z,571.2
2022-08-16T00:04:52.947Z,571.2
2022-08-16T00:05:58.500Z,570.7
2022-08-16T00:07:03.136Z,571.3
2022-08-16T00:08:05.516Z,571
2022-08-16T00:09:07.247Z,570.7
2022-08-16T00:10:21.688Z,570.6
2022-08-16T00:11:24.152Z,570.4
2022-08-16T00:12:27.210Z,570.2
2022-08-16T00:13:29.308Z,570.5
2022-08-16T00:14:31.023Z,570.5
2022-08-16T00:15:55.260Z,570.7
2022-08-16T00:17:19.872Z,570.4
2022-08-16T00:18:32.169Z,570.7
2022-08-16T00:19:42.640Z,571
2022-08-16T00:20:44.182Z,570.8
2022-08-16T00:21:45.746Z,570.5
2022-08-16T00:22:47.940Z,570.4
2022-08-16T00:23:53.123Z,570.6
2022-08-16T00:24:55.219Z,570.5
2022-08-16T00:26:45.585Z,570.4
2022-08-16T00:27:47.627Z,570.3
2022-08-16T00:28:55.501Z,570
2022-08-16T00:30:29.484Z,569.9
2022-08-16T00:32:06.770Z,570
2022-08-16T00:33:09.843Z,570
2022-08-16T00:34:20.008Z,569.9
2022-08-16T00:35:21.673Z,569.9
2022-08-16T00:36:24.746Z,569.9
2022-08-16T00:37:59.944Z,570.2
2022-08-16T00:39:04.307Z,570.1
2022-08-16T00:40:53.459Z,570.2
2022-08-16T00:41:55.605Z,570.7
2022-08-16T00:42:57.244Z,570.8
2022-08-16T00:43:58.861Z,571.2
2022-08-16T00:45:00.658Z,571
2022-08-16T00:46:35.943Z,570.8
2022-08-16T00:47:37.633Z,570.4
2022-08-16T00:48:46.010Z,570.6
2022-08-16T00:49:57.284Z,570.2
2022-08-16T00:51:00.159Z,570.3
2022-08-16T00:52:02.191Z,570.1
2022-08-16T00:53:03.835Z,569.9
2022-08-16T00:54:05.809Z,570.2
2022-08-16T00:55:12.250Z,569.9
2022-08-16T00:57:00.584Z,569.5
2022-08-16T00:58:02.149Z,569.5
2022-08-16T00:59:05.235Z,569.5
2022-08-16T01:00:09.227Z,569.3
2022-08-16T01:01:11.382Z,569.2
2022-08-16T01:02:33.574Z,568.9
2022-08-16T01:03:35.698Z,569.4
2022-08-16T01:04:37.918Z,569.5
2022-08-16T01:05:39.587Z,569.4
2022-08-16T01:07:03.521Z,569.3
2022-08-16T01:08:37.322Z,569.5
2022-08-16T01:09:43.517Z,569.1
2022-08-16T01:10:45.764Z,569.5
2022-08-16T01:11:57.182Z,569
2022-08-16T01:13:00.798Z,568.8
2022-08-16T01:14:02.889Z,569
2022-08-16T01:15:04.427Z,569.1
2022-08-16T01:16:11.060Z,569
2022-08-16T01:17:13.369Z,568.4
2022-08-16T01:18:41.916Z,568.4
2022-08-16T01:19:44.910Z,568.4
2022-08-16T01:20:51.738Z,568.5
2022-08-16T01:21:54.933Z,568.4
2022-08-16T01:22:59.746Z,567.9
2022-08-16T01:24:03.359Z,567.9
2022-08-16T01:25:04.946Z,567.3
2022-08-16T01:26:36.737Z,567.6
2022-08-16T01:27:39.628Z,567.4
2022-08-16T01:28:46.008Z,567.2
2022-08-16T01:30:00.506Z,567
2022-08-16T01:31:02.090Z,567.2
2022-08-16T01:32:03.617Z,567.4
2022-08-16T01:33:16.707Z,567.3
2022-08-16T01:34:27.158Z,567.3
2022-08-16T01:35:36.706Z,567.2
2022-08-16T01:36:38.312Z,567.6
2022-08-16T01:37:43.047Z,567.7
2022-08-16T01:38:57.802Z,567.8
2022-08-16T01:40:01.551Z,567.6
2022-08-16T01:41:08.890Z,567.6
2022-08-16T01:42:20.457Z,567.4
2022-08-16T01:43:31.791Z,567.2
2022-08-16T01:44:40.042Z,567.2
2022-08-16T01:45:44.026Z,567.3
2022-08-16T01:46:45.707Z,567.1
2022-08-16T01:47:52.538Z,567
2022-08-16T01:48:55.103Z,567
2022-08-16T01:51:17.486Z,567
2022-08-16T01:52:30.965Z,567.1
2022-08-16T01:53:33.998Z,567.1
2022-08-16T01:54:40.293Z,567.3
2022-08-16T01:55:44.404Z,567.2
2022-08-16T01:56:56.796Z,567.2
2022-08-16T01:58:00.011Z,566.9
2022-08-16T01:59:01.659Z,566.8
2022-08-16T02:00:03.270Z,566.9
2022-08-16T02:01:09.032Z,566.8
2022-08-16T02:02:29.466Z,566.8
2022-08-16T02:03:31.557Z,567
2022-08-16T02:04:55.419Z,566.9
2022-08-16T02:05:57.807Z,567.3
2022-08-16T02:06:59.872Z,567.6
2022-08-16T02:08:01.716Z,567.8
2022-08-16T02:09:06.289Z,567.5
2022-08-16T02:10:08.699Z,567.1
2022-08-16T02:11:11.069Z,566.7
2022-08-16T02:13:01.257Z,566.8
2022-08-16T02:14:04.231Z,566
2022-08-16T02:15:05.964Z,565.7
2022-08-16T02:16:19.367Z,565.8
2022-08-16T02:17:23.600Z,565.1
2022-08-16T02:18:25.132Z,564.8
2022-08-16T02:20:01.287Z,564.9
2022-08-16T02:21:04.764Z,564.5
2022-08-16T02:22:37.419Z,564.7
2022-08-16T02:23:42.250Z,564.5
2022-08-16T02:24:46.675Z,564.9
2022-08-16T02:25:55.054Z,564.4
2022-08-16T02:26:57.608Z,563.8
2022-08-16T02:28:00.761Z,562.7
2022-08-16T02:29:02.470Z,562
2022-08-16T02:30:06.444Z,561.6
2022-08-16T02:31:09.337Z,561.2
2022-08-16T02:32:52.334Z,560.8
2022-08-16T02:33:55.412Z,560.4
2022-08-16T02:34:57.370Z,559.7
2022-08-16T02:36:03.208Z,559.6
2022-08-16T02:37:06.942Z,559.5
2022-08-16T02:38:09.713Z,559.7
2022-08-16T02:39:11.319Z,560
2022-08-16T02:40:16.971Z,560
2022-08-16T02:41:20.480Z,559.6
2022-08-16T02:42:22.103Z,560
2022-08-16T02:43:27.956Z,559.8
2022-08-16T02:44:29.469Z,559.5
2022-08-16T02:45:32.044Z,559.3
2022-08-16T02:46:34.241Z,559.7
2022-08-16T02:48:34.138Z,559.9
2022-08-16T02:51:12.016Z,559.2
2022-08-16T02:52:32.823Z,560.5
2022-08-16T02:53:34.368Z,560.9
2022-08-16T02:54:37.275Z,560.8
2022-08-16T02:55:42.041Z,560.9
2022-08-16T02:56:48.529Z,560.3
2022-08-16T02:57:55.274Z,560.4
2022-08-16T02:59:00.156Z,560.8
2022-08-16T03:00:37.678Z,560.6
2022-08-16T03:01:41.078Z,561.5
2022-08-16T03:02:43.297Z,562
2022-08-16T03:04:54.264Z,561.8
2022-08-16T03:05:56.782Z,560.8
2022-08-16T03:06:58.617Z,561.2
2022-08-16T03:08:01.010Z,561.4
2022-08-16T03:09:03.482Z,561.6
2022-08-16T03:10:07.850Z,562.1
2022-08-16T03:11:22.399Z,562.2
2022-08-16T03:12:57.079Z,562.1
2022-08-16T03:14:00.418Z,561.5
2022-08-16T03:15:02.059Z,562.4
2022-08-16T03:16:03.706Z,562.9
2022-08-16T03:17:05.369Z,563.1
2022-08-16T03:18:42.007Z,563.5
2022-08-16T03:20:03.425Z,564.2
2022-08-16T03:21:05.712Z,564.1
2022-08-16T03:22:07.365Z,564.1
2022-08-16T03:23:08.904Z,563.9
2022-08-16T03:24:30.273Z,563.5
2022-08-16T03:25:48.812Z,563.1
2022-08-16T03:26:51.800Z,563.1
2022-08-16T03:27:53.741Z,563
2022-08-16T03:28:57.298Z,563.4
2022-08-16T03:29:58.908Z,562.9
2022-08-16T03:31:02.569Z,563.3
2022-08-16T03:32:04.549Z,563.4
2022-08-16T03:33:08.393Z,563.3
2022-08-16T03:34:14.250Z,563.6
2022-08-16T03:35:19.516Z,564
2022-08-16T03:36:33.459Z,564.2
2022-08-16T03:38:33.630Z,563.8
2022-08-16T03:39:44.156Z,564.2
2022-08-16T03:40:45.814Z,564.3
2022-08-16T03:42:00.540Z,564.1
2022-08-16T03:43:22.117Z,563.8
2022-08-16T03:44:50.077Z,563.6
2022-08-16T03:45:53.964Z,563.4
2022-08-16T03:46:58.716Z,563.4
2022-08-16T03:48:00.476Z,562.9
2022-08-16T03:49:02.413Z,562.8
2022-08-16T03:50:27.255Z,562.9
2022-08-16T03:51:28.921Z,563
2022-08-16T03:52:32.407Z,562.7
2022-08-16T03:53:38.990Z,562.9
2022-08-16T03:55:00.074Z,563.1
2022-08-16T03:56:01.731Z,563.3
2022-08-16T03:57:11.561Z,563.4
2022-08-16T03:58:17.228Z,563.7
2022-08-16T03:59:18.809Z,563.4
2022-08-16T04:00:41.785Z,563.8
2022-08-16T04:01:45.899Z,564.1
2022-08-16T04:02:56.043Z,563.9
2022-08-16T04:03:57.981Z,564.2
2022-08-16T04:05:04.338Z,563.6
2022-08-16T04:06:06.019Z,563.3
2022-08-16T04:07:07.876Z,563.7
2022-08-16T04:08:27.514Z,563.4
2022-08-16T04:09:30.271Z,563.5
2022-08-16T04:10:38.577Z,563.5
2022-08-16T04:11:42.611Z,564
2022-08-16T04:13:04.940Z,564
2022-08-16T04:14:36.039Z,564
2022-08-16T04:15:41.269Z,564.3
2022-08-16T04:16:43.561Z,564.3
2022-08-16T04:17:45.116Z,564.1
2022-08-16T04:18:46.730Z,564.5
2022-08-16T04:20:00.147Z,564.1
2022-08-16T04:21:03.732Z,563.9
2022-08-16T04:22:09.896Z,564.2
2022-08-16T04:23:15.946Z,564.3
2022-08-16T04:24:17.987Z,563.8
2022-08-16T04:25:19.638Z,563.9
2022-08-16T04:26:31.889Z,563.9
2022-08-16T04:27:35.017Z,563.9
2022-08-16T04:29:25.198Z,564.1
2022-08-16T04:30:36.047Z,564
2022-08-16T04:31:37.728Z,563.8
2022-08-16T04:32:42.423Z,563.6
2022-08-16T04:33:52.657Z,563.2
2022-08-16T04:34:56.263Z,563.7
2022-08-16T04:35:57.889Z,563.2
2022-08-16T04:37:02.426Z,563.3
2022-08-16T04:38:22.485Z,563.4
2022-08-16T04:39:55.515Z,563.2
2022-08-16T04:41:00.182Z,563.4
2022-08-16T04:42:12.666Z,563.4
2022-08-16T04:43:18.206Z,562.9
2022-08-16T04:44:56.406Z,563.1
2022-08-16T04:46:03.619Z,562.7
2022-08-16T04:47:25.116Z,563.1
2022-08-16T04:48:35.399Z,563.8
2022-08-16T04:49:46.738Z,563.7
2022-08-16T04:50:49.596Z,564
2022-08-16T04:51:55.866Z,564.2
2022-08-16T04:52:59.740Z,564.3
2022-08-16T04:54:03.542Z,564.3
2022-08-16T04:55:05.402Z,564.5
2022-08-16T04:56:16.658Z,564.8
2022-08-16T04:57:18.334Z,565
2022-08-16T04:58:47.607Z,564.6
2022-08-16T04:59:54.970Z,564.4
2022-08-16T05:00:57.548Z,564.3
2022-08-16T05:02:42.838Z,564.1
2022-08-16T05:04:02.194Z,563.6
2022-08-16T05:05:04.979Z,563.2
2022-08-16T05:06:11.097Z,562.9
2022-08-16T05:07:24.821Z,562.3
2022-08-16T05:08:31.805Z,561.9
2022-08-16T05:09:45.216Z,562
2022-08-16T05:10:50.955Z,562.5
2022-08-16T05:11:58.143Z,562
2022-08-16T05:12:59.788Z,562.1
2022-08-16T05:14:09.424Z,561.7
2022-08-16T05:15:11.481Z,561.5
2022-08-16T05:16:24.169Z,561.4
2022-08-16T05:17:27.983Z,561.6
2022-08-16T05:18:31.257Z,562.2
2022-08-16T05:19:37.005Z,562.2
2022-08-16T05:21:12.839Z,562.3
2022-08-16T05:22:18.809Z,562.2
2022-08-16T05:23:23.847Z,561.8
2022-08-16T05:24:26.205Z,561.6
2022-08-16T05:25:49.731Z,561.8
2022-08-16T05:26:52.845Z,561.5
2022-08-16T05:27:57.046Z,560.9
2022-08-16T05:28:59.515Z,560.5
2022-08-16T05:30:38.704Z,560.4
2022-08-16T05:31:53.968Z,560.7
2022-08-16T05:32:58.756Z,560.9
2022-08-16T05:34:00.435Z,560.9
2022-08-16T05:35:02.706Z,560.9
2022-08-16T05:36:21.097Z,561.5
2022-08-16T05:37:28.939Z,561.4
2022-08-16T05:38:41.536Z,561.1
2022-08-16T05:39:45.751Z,561.3
2022-08-16T05:41:02.155Z,561.7
2022-08-16T05:42:03.891Z,561.9
2022-08-16T05:43:12.478Z,562.1
2022-08-16T05:44:25.611Z,562.6
2022-08-16T05:45:27.264Z,562.5
2022-08-16T05:46:32.079Z,562.5
2022-08-16T05:47:43.851Z,562.1
2022-08-16T05:49:09.442Z,561.7
2022-08-16T05:50:34.710Z,561.3
2022-08-16T05:51:42.538Z,560.8
2022-08-16T05:52:49.331Z,560.7
2022-08-16T05:53:50.969Z,560.8
2022-08-16T05:55:02.310Z,561.2
2022-08-16T05:56:06.123Z,561.1
2022-08-16T05:57:15.447Z,561.1
2022-08-16T05:58:33.775Z,561.5
2022-08-16T05:59:37.273Z,561.7
2022-08-16T06:00:39.039Z,561.6
2022-08-16T06:01:41.451Z,561.8
2022-08-16T06:02:46.212Z,561.8
2022-08-16T06:03:51.423Z,562.2
2022-08-16T06:04:55.005Z,562.1
2022-08-16T06:06:01.302Z,562.2
2022-08-16T06:07:26.985Z,562.1
2022-08-16T06:08:46.721Z,561.8
2022-08-16T06:09:53.126Z,561.9
2022-08-16T06:11:13.871Z,561.5
2022-08-16T06:12:29.565Z,561.9
2022-08-16T06:13:33.274Z,561.5
2022-08-16T06:14:40.285Z,561.6
2022-08-16T06:15:42.116Z,561.9
2022-08-16T06:16:43.777Z,562
2022-08-16T06:17:45.316Z,562.5
2022-08-16T06:18:48.040Z,562.3
2022-08-16T06:19:51.832Z,562.6
2022-08-16T06:21:00.961Z,562.6
2022-08-16T06:22:02.750Z,562.6
2022-08-16T06:23:19.613Z,562.2
2022-08-16T06:24:56.378Z,562.4
2022-08-16T06:25:59.039Z,562.3
2022-08-16T06:27:00.686Z,562.3
2022-08-16T06:28:35.189Z,562.4
2022-08-16T06:29:38.403Z,562.5
2022-08-16T06:30:47.001Z,562.3
2022-08-16T06:31:50.918Z,562.8
2022-08-16T06:32:55.320Z,562.4
2022-08-16T06:33:57.579Z,562.7
2022-08-16T06:35:03.558Z,562.9
2022-08-16T06:36:08.770Z,563.2
2022-08-16T06:37:11.290Z,563.4
2022-08-16T06:38:34.988Z,563.5
2022-08-16T06:39:51.028Z,563.8
2022-08-16T06:40:52.703Z,563.9
2022-08-16T06:41:54.385Z,564.2
2022-08-16T06:42:58.895Z,563.8
2022-08-16T06:44:00.627Z,563.7
2022-08-16T06:45:02.244Z,563.3
2022-08-16T06:46:04.923Z,562.9
2022-08-16T06:47:09.034Z,562.8
2022-08-16T06:48:10.796Z,563.1
2022-08-16T06:49:12.713Z,563.4
2022-08-16T06:50:31.822Z,563.6
2022-08-16T06:51:49.415Z,563.3
2022-08-16T06:53:11.273Z,563.2
2022-08-16T06:54:16.780Z,563.3
2022-08-16T06:55:18.424Z,563.9
2022-08-16T06:56:24.233Z,563.5
2022-08-16T06:57:27.341Z,563.5
2022-08-16T06:58:32.642Z,563.4
2022-08-16T07:00:02.256Z,563.8
2022-08-16T07:01:17.066Z,564
2022-08-16T07:02:34.569Z,564.4
2022-08-16T07:03:57.914Z,564.3
2022-08-16T07:05:00.241Z,564.5
2022-08-16T07:06:03.744Z,564.8
2022-08-16T07:07:10.287Z,564.8
2022-08-16T07:08:12.457Z,564.8
2022-08-16T07:09:16.475Z,565.2
2022-08-16T07:10:27.094Z,565.3
2022-08-16T07:11:52.808Z,564.9
2022-08-16T07:13:58.889Z,564.8
2022-08-16T07:15:25.721Z,564.7
2022-08-16T07:16:28.300Z,564.8
2022-08-16T07:17:30.958Z,565.3
2022-08-16T07:18:32.922Z,564.7
2022-08-16T07:20:48.373Z,565.1
2022-08-16T07:22:00.688Z,565.7
2022-08-16T07:23:14.081Z,565.7
2022-08-16T07:24:31.536Z,565.6
2022-08-16T07:25:33.126Z,565.6
2022-08-16T07:26:49.536Z,566.1
2022-08-16T07:27:51.694Z,566.3
2022-08-16T07:28:53.659Z,566.4
2022-08-16T07:29:56.813Z,566.6
2022-08-16T07:30:58.426Z,566.8
2022-08-16T07:32:01.483Z,566.6
2022-08-16T07:33:07.371Z,567.1
2022-08-16T07:34:10.797Z,566.3
2022-08-16T07:35:14.810Z,566.3
2022-08-16T07:36:23.208Z,566.1
2022-08-16T07:37:25.377Z,566.4
2022-08-16T07:38:34.786Z,566.2
2022-08-16T07:39:46.567Z,566.2
2022-08-16T07:41:11.587Z,566.5
2022-08-16T07:42:35.822Z,566.6
2022-08-16T07:43:43.716Z,566.3
2022-08-16T07:44:51.514Z,566.2
2022-08-16T07:45:53.865Z,566.1
2022-08-16T07:46:57.039Z,565.9
2022-08-16T07:48:11.365Z,566
2022-08-16T07:49:14.121Z,565.9
2022-08-16T07:51:09.329Z,565.9
2022-08-16T07:52:21.548Z,566.3
2022-08-16T07:53:23.255Z,566
2022-08-16T07:54:49.314Z,566
2022-08-16T07:55:55.191Z,566.2
2022-08-16T07:56:56.777Z,566.4
2022-08-16T07:58:03.870Z,566.3
2022-08-16T07:59:05.645Z,565.9
2022-08-16T08:00:19.343Z,565.9
2022-08-16T08:01:28.603Z,565.7
2022-08-16T08:02:31.268Z,565.7
2022-08-16T08:03:49.480Z,565.2
2022-08-16T08:04:51.104Z,565.2
2022-08-16T08:05:53.113Z,565.5
2022-08-16T08:06:54.787Z,565.4
2022-08-16T08:07:58.167Z,565.4
2022-08-16T08:09:00.180Z,565.5
2022-08-16T08:10:05.136Z,565.5
2022-08-16T08:11:18.722Z,565.7
2022-08-16T08:12:48.251Z,565.4
2022-08-16T08:13:54.160Z,565.7
2022-08-16T08:14:55.792Z,565.5
2022-08-16T08:15:57.417Z,565.8
2022-08-16T08:17:02.819Z,565.7
2022-08-16T08:18:31.765Z,565.8
2022-08-16T08:19:33.645Z,565.4
2022-08-16T08:20:36.501Z,565.5
2022-08-16T08:22:06.699Z,565.1
2022-08-16T08:23:09.973Z,565
2022-08-16T08:24:15.724Z,565.3
2022-08-16T08:25:19.564Z,565.3
2022-08-16T08:26:21.303Z,565.4
2022-08-16T08:27:25.988Z,565
2022-08-16T08:28:28.347Z,564.8
2022-08-16T08:29:43.014Z,565
2022-08-16T08:31:03.543Z,564.8
2022-08-16T08:33:03.393Z,564.7
2022-08-16T08:34:08.456Z,564.9
2022-08-16T08:35:11.015Z,565
2022-08-16T08:36:22.793Z,565.2
2022-08-16T08:37:26.152Z,564.8
2022-08-16T08:38:59.238Z,564.6
2022-08-16T08:40:03.015Z,564.4
2022-08-16T08:41:04.557Z,564.5
2022-08-16T08:42:06.466Z,564.6
2022-08-16T08:43:19.151Z,564.5
2022-08-16T08:44:31.971Z,565
2022-08-16T08:45:53.866Z,565.1
2022-08-16T08:47:11.539Z,565.1
2022-08-16T08:48:37.628Z,564.5
2022-08-16T08:49:58.390Z,564.9
2022-08-16T08:50:59.943Z,564.7
2022-08-16T08:52:09.694Z,564.7
2022-08-16T08:53:13.701Z,564.9
2022-08-16T08:54:23.301Z,564.8
2022-08-16T08:55:24.862Z,564.9
2022-08-16T08:56:26.969Z,564.9
2022-08-16T08:57:29.397Z,565.1
2022-08-16T08:58:35.316Z,564.8
2022-08-16T08:59:41.735Z,565
2022-08-16T09:00:52.420Z,565.2
2022-08-16T09:01:59.370Z,565.7
2022-08-16T09:03:10.467Z,565.4
2022-08-16T09:04:19.212Z,565.8
2022-08-16T09:05:22.779Z,566.2
2022-08-16T09:06:26.904Z,566.1
2022-08-16T09:07:28.557Z,566.3
2022-08-16T09:08:35.580Z,566.2
2022-08-16T09:09:41.840Z,566.1
2022-08-16T09:10:45.786Z,566.2
2022-08-16T09:12:07.448Z,566.2
2022-08-16T09:13:11.210Z,566.6
2022-08-16T09:14:26.610Z,566.8
2022-08-16T09:15:34.399Z,566.7
2022-08-16T09:17:52.031Z,566.6
2022-08-16T09:20:13.491Z,565.8
2022-08-16T09:21:17.650Z,565.3
2022-08-16T09:22:34.523Z,565.6
2022-08-16T09:23:37.478Z,565.6
2022-08-16T09:25:13.157Z,565.5
2022-08-16T09:26:52.804Z,565.5
2022-08-16T09:28:10.307Z,565.4
2022-08-16T09:29:46.356Z,565.5
2022-08-16T09:30:49.255Z,565.8
2022-08-16T09:31:54.209Z,566.4
2022-08-16T09:32:55.807Z,566.4
2022-08-16T09:33:57.600Z,566.1
2022-08-16T09:34:59.311Z,566.4
2022-08-16T09:36:01.101Z,566.8
2022-08-16T09:37:30.140Z,567.1
2022-08-16T09:38:41.355Z,567
2022-08-16T09:39:50.899Z,567
2022-08-16T09:40:54.052Z,566.9
2022-08-16T09:41:55.644Z,566.8
2022-08-16T09:43:00.743Z,566.5
2022-08-16T09:45:18.843Z,566.8
2022-08-16T09:46:57.973Z,567.5
2022-08-16T09:47:59.756Z,567.5
2022-08-16T09:49:08.681Z,567.4
2022-08-16T09:50:25.383Z,567.3
2022-08-16T09:51:37.848Z,567.2
2022-08-16T09:52:48.923Z,567.2
2022-08-16T09:53:57.985Z,567
2022-08-16T09:54:59.617Z,567.3
2022-08-16T09:56:01.472Z,567.2
2022-08-16T09:57:03.494Z,567.5
2022-08-16T09:58:11.686Z,567.2
2022-08-16T09:59:42.718Z,567.4
2022-08-16T10:00:47.175Z,567.7
2022-08-16T10:01:52.041Z,567.3
2022-08-16T10:03:01.179Z,567.3
2022-08-16T10:04:53.151Z,567.3
2022-08-16T10:05:56.844Z,567.4
2022-08-16T10:08:28.035Z,568
2022-08-16T10:09:56.692Z,567.7
2022-08-16T10:11:02.881Z,567.6
2022-08-16T10:12:20.373Z,568.6
2022-08-16T10:13:22.210Z,568.6
2022-08-16T10:14:33.911Z,567.4
2022-08-16T10:15:37.948Z,567.4
2022-08-16T10:17:02.325Z,567.6
2022-08-16T10:19:08.657Z,567.4
2022-08-16T10:20:19.223Z,567.7
2022-08-16T10:21:32.356Z,567.6
2022-08-16T10:22:36.305Z,567.8
2022-08-16T10:23:43.782Z,567.9
2022-08-16T10:25:00.692Z,568.1
2022-08-16T10:28:01.198Z,568
2022-08-16T10:30:32.773Z,569
2022-08-16T10:31:56.851Z,568.6
2022-08-16T10:32:58.647Z,568.4
2022-08-16T10:34:00.398Z,568.2
2022-08-16T10:35:02.587Z,568.4
2022-08-16T10:36:04.856Z,568.8
2022-08-16T10:37:08.520Z,568.1
2022-08-16T10:38:37.414Z,568
2022-08-16T10:39:43.515Z,567.9
2022-08-16T10:40:46.150Z,568.2
2022-08-16T10:41:47.854Z,568.5
2022-08-16T10:42:50.831Z,568.4
2022-08-16T10:43:52.502Z,568.3
2022-08-16T10:44:55.848Z,568.1
2022-08-16T10:46:01.750Z,567.9
2022-08-16T10:47:05.362Z,568.3
2022-08-16T10:48:31.366Z,568.4
2022-08-16T10:49:33.523Z,568.4
2022-08-16T10:50:36.591Z,568.4
2022-08-16T10:52:20.409Z,568.4
2022-08-16T10:53:22.489Z,568
2022-08-16T10:54:32.051Z,567.8
2022-08-16T10:55:57.943Z,568.4
2022-08-16T10:57:05.105Z,568.2
2022-08-16T10:58:17.607Z,568.5
2022-08-16T10:59:58.732Z,568.2
2022-08-16T11:01:00.961Z,567.8
2022-08-16T11:03:05.719Z,567.9
2022-08-16T11:05:09.681Z,567.3
2022-08-16T11:06:14.068Z,567.6
2022-08-16T11:07:55.709Z,567.6
2022-08-16T11:09:44.030Z,567.5
2022-08-16T11:11:20.187Z,567.6
2022-08-16T11:12:29.573Z,567.9
2022-08-16T11:14:12.175Z,568.2
2022-08-16T11:15:19.664Z,568.2
2022-08-16T11:17:11.688Z,568.2
2022-08-16T11:19:15.700Z,568.1
2022-08-16T11:20:50.869Z,568.3
2022-08-16T11:22:49.270Z,568.7
2022-08-16T11:24:00.365Z,569
2022-08-16T11:26:25.165Z,568.9
2022-08-16T11:27:36.760Z,569.4
2022-08-16T11:29:15.770Z,569.6
2022-08-16T11:30:39.549Z,569.5
2022-08-16T11:31:54.713Z,569.4
2022-08-16T11:32:57.656Z,569.7
2022-08-16T11:33:59.412Z,569.7
2022-08-16T11:35:17.217Z,569.8
2022-08-16T11:36:29.833Z,569.8
2022-08-16T11:38:58.663Z,570
2022-08-16T11:40:01.909Z,570
2022-08-16T11:41:03.647Z,569.9
2022-08-16T11:42:37.687Z,569.9
2022-08-16T11:43:39.291Z,570.4
2022-08-16T11:44:57.443Z,570.5
2022-08-16T11:46:47.100Z,570.7
2022-08-16T11:47:49.602Z,571.3
2022-08-16T11:48:51.450Z,571.2
2022-08-16T11:49:53.029Z,571.4
2022-08-16T11:50:54.818Z,571.3
2022-08-16T11:51:58.037Z,571
2022-08-16T11:53:04.348Z,570.8
2022-08-16T11:54:33.160Z,570.6
2022-08-16T11:55:38.888Z,570.9
2022-08-16T11:56:58.090Z,570.7
2022-08-16T11:58:00.811Z,570.5
2022-08-16T11:59:02.657Z,570.4
2022-08-16T12:00:53.779Z,570
2022-08-16T12:02:33.423Z,569.3
2022-08-16T12:03:37.623Z,568.8
2022-08-16T12:04:44.103Z,567.7
2022-08-16T12:05:45.926Z,567.5
2022-08-16T12:06:55.020Z,567.4
2022-08-16T12:08:05.602Z,567.6
2022-08-16T12:09:15.434Z,568.9
2022-08-16T12:10:17.743Z,569.1
2022-08-16T12:11:26.707Z,568.8
2022-08-16T12:12:28.983Z,569.2
2022-08-16T12:13:31.003Z,569.5
2022-08-16T12:14:37.992Z,569.5
2022-08-16T12:15:39.631Z,569.9
2022-08-16T12:16:57.237Z,569.7
2022-08-16T12:17:59.127Z,569.4
2022-08-16T12:19:00.734Z,569.5
2022-08-16T12:20:12.836Z,569.4
2022-08-16T12:21:20.193Z,569.9
2022-08-16T12:22:24.180Z,570.1
2022-08-16T12:23:26.567Z,570.3
2022-08-16T12:24:28.236Z,570.6
2022-08-16T12:25:30.590Z,570.9
2022-08-16T12:26:32.152Z,571
2022-08-16T12:27:39.700Z,571.4
2022-08-16T12:28:57.044Z,571.8
2022-08-16T12:29:59.441Z,572
2022-08-16T12:31:01.343Z,572.1
2022-08-16T12:32:42.533Z,571.9
2022-08-16T12:33:45.591Z,572.3
2022-08-16T12:34:53.998Z,572.3
2022-08-16T12:35:55.529Z,572.6
2022-08-16T12:36:57.608Z,572.8
2022-08-16T12:37:59.644Z,572.8
2022-08-16T12:39:02.941Z,572.6
2022-08-16T12:40:05.401Z,572.7
2022-08-16T12:41:08.599Z,572.5
2022-08-16T12:42:10.411Z,573
2022-08-16T12:43:12.050Z,573.5
2022-08-16T12:44:20.565Z,573
2022-08-16T12:45:23.883Z,573.1
2022-08-16T12:46:25.526Z,573.1
2022-08-16T12:47:28.301Z,573.1
2022-08-16T12:48:35.749Z,573.3
2022-08-16T12:49:42.940Z,573.1
2022-08-16T12:50:50.814Z,573.3
2022-08-16T12:52:02.868Z,573.4
2022-08-16T12:53:06.591Z,573.5
2022-08-16T12:54:08.154Z,573.6
2022-08-16T12:55:14.907Z,573.7
2022-08-16T12:56:19.337Z,573.6
2022-08-16T12:57:21.688Z,573.6
2022-08-16T12:58:52.403Z,573.6
2022-08-16T12:59:56.524Z,574
2022-08-16T13:00:59.293Z,573.6
2022-08-16T13:02:22.649Z,574
2022-08-16T13:03:41.285Z,574.1
2022-08-16T13:04:43.774Z,573.9
2022-08-16T13:05:58.393Z,573.8
2022-08-16T13:07:00.446Z,574.3
2022-08-16T13:08:02.093Z,574.7
2022-08-16T13:09:04.571Z,575
2022-08-16T13:10:39.812Z,575.1
2022-08-16T13:11:59.663Z,575.3
2022-08-16T13:13:01.476Z,575.3
2022-08-16T13:14:05.821Z,575.4
2022-08-16T13:15:12.506Z,575.2
2022-08-16T13:16:27.445Z,575.4
2022-08-16T13:17:30.571Z,575.6
2022-08-16T13:18:36.348Z,575.3
2022-08-16T13:20:12.148Z,575.5
2022-08-16T13:21:15.320Z,575.4
2022-08-16T13:22:20.419Z,575.2
2022-08-16T13:23:24.018Z,575.1
2022-08-16T13:24:26.280Z,574.8
2022-08-16T13:25:29.168Z,575.4
2022-08-16T13:26:31.452Z,575.4
2022-08-16T13:28:07.654Z,575.5
2022-08-16T13:29:17.339Z,575.6
2022-08-16T13:30:42.959Z,575.7
2022-08-16T13:31:46.901Z,575.8
2022-08-16T13:32:53.149Z,575.9
2022-08-16T13:33:59.464Z,576.6
2022-08-16T13:35:01.590Z,576.5
2022-08-16T13:36:03.309Z,576.8
2022-08-16T13:37:06.397Z,576.5
2022-08-16T13:38:08.759Z,576.8
2022-08-16T13:39:10.620Z,576.9
2022-08-16T13:40:23.636Z,577.1
2022-08-16T13:41:25.365Z,577.6
2022-08-16T13:42:32.029Z,577.7
2022-08-16T13:43:33.787Z,577.4
2022-08-16T13:44:58.972Z,577.4
2022-08-16T13:46:05.339Z,577.7
2022-08-16T13:47:07.821Z,578.4
2022-08-16T13:48:09.550Z,577.9
2022-08-16T13:49:11.217Z,578.2
2022-08-16T13:50:12.849Z,578.4
2022-08-16T13:51:19.011Z,578.5
2022-08-16T13:52:20.565Z,578.6
2022-08-16T13:53:25.385Z,578.5
2022-08-16T13:54:32.613Z,578
2022-08-16T13:55:34.156Z,578.3
2022-08-16T13:56:40.719Z,578.1
2022-08-16T13:58:55.570Z,578.2
2022-08-16T14:00:00.969Z,578
2022-08-16T14:01:10.889Z,577.6
2022-08-16T14:02:16.319Z,577.8
2022-08-16T14:03:18.850Z,579.6
2022-08-16T14:04:27.898Z,577.6
2022-08-16T14:05:29.506Z,577.5
2022-08-16T14:06:31.043Z,577.5
2022-08-16T14:07:41.173Z,578
2022-08-16T14:09:07.133Z,577.6
2022-08-16T14:10:09.100Z,577.3
2022-08-16T14:11:14.814Z,577.1
2022-08-16T14:12:18.753Z,577.6
2022-08-16T14:13:22.454Z,577.9
2022-08-16T14:14:32.235Z,577.5
2022-08-16T14:15:36.173Z,577.7
2022-08-16T14:16:37.880Z,577.8
2022-08-16T14:18:22.119Z,577.6
2022-08-16T14:19:32.474Z,578.2
2022-08-16T14:20:34.155Z,578.5
2022-08-16T14:21:36.482Z,578.3
2022-08-16T14:22:43.072Z,578.1
2022-08-16T14:23:45.286Z,578.5
2022-08-16T14:24:48.279Z,578.5
2022-08-16T14:25:57.734Z,577.7
2022-08-16T14:27:04.696Z,577.8
2022-08-16T14:28:12.981Z,577.9
2022-08-16T14:30:21.077Z,577.3
2022-08-16T14:31:24.163Z,577.5
2022-08-16T14:32:34.987Z,577.4
2022-08-16T14:33:36.553Z,577.3
2022-08-16T14:34:40.593Z,577.5
2022-08-16T14:35:51.322Z,577.5
2022-08-16T14:36:53.600Z,577.1
2022-08-16T14:37:57.704Z,576.8
2022-08-16T14:38:59.402Z,576.8
2022-08-16T14:40:03.902Z,576.6
2022-08-16T14:41:10.900Z,576.7
2022-08-16T14:42:16.659Z,576.3
2022-08-16T14:43:19.940Z,576.4
2022-08-16T14:44:21.489Z,576.6
2022-08-16T14:45:23.070Z,576.6
2022-08-16T14:46:24.845Z,576.5
2022-08-16T14:47:35.347Z,576.1
2022-08-16T14:48:37.588Z,575.8
2022-08-16T14:49:41.249Z,575.4
2022-08-16T14:50:43.172Z,575.6
2022-08-16T14:51:45.194Z,575.7
2022-08-16T14:53:04.459Z,575.5
2022-08-16T14:54:15.257Z,575.4
2022-08-16T14:55:17.502Z,575.2
2022-08-16T14:56:55.674Z,575.6
2022-08-16T14:57:59.093Z,575.7
2022-08-16T14:59:03.301Z,575.8
2022-08-16T15:00:11.379Z,575.6
2022-08-16T15:01:16.514Z,575.5
2022-08-16T15:02:35.493Z,575.5
2022-08-16T15:03:38.207Z,575.3
2022-08-16T15:04:50.086Z,575.7
2022-08-16T15:05:54.677Z,575.6
2022-08-16T15:06:56.461Z,575.4
2022-08-16T15:07:58.008Z,575.6
2022-08-16T15:08:59.557Z,575.8
2022-08-16T15:10:03.980Z,575.8
2022-08-16T15:11:05.818Z,575.7
2022-08-16T15:12:35.915Z,575.4
2022-08-16T15:13:38.923Z,575.4
2022-08-16T15:14:42.235Z,575.2
2022-08-16T15:15:43.934Z,575.5
2022-08-16T15:16:46.689Z,575
2022-08-16T15:17:58.606Z,575.2
2022-08-16T15:19:04.250Z,575.2
2022-08-16T15:20:09.645Z,575.2
2022-08-16T15:21:11.224Z,575.6
2022-08-16T15:22:17.034Z,575.5
2022-08-16T15:23:22.501Z,575